createdAt,value
2018-11-29T00:02:03.552Z,21.37
2018-11-29T00:04:31.965Z,18.47
2018-11-29T00:07:00.096Z,18.70
2018-11-29T00:09:28.300Z,17.90
2018-11-29T00:11:56.480Z,17.03
2018-11-29T00:14:24.652Z,19.17
2018-11-29T00:16:52.812Z,20.30
2018-11-29T00:19:20.985Z,24.27
2018-11-29T00:21:49.137Z,20.03
2018-11-29T00:24:17.305Z,26.07
2018-11-29T00:26:45.456Z,22.67
2018-11-29T00:29:13.600Z,23.27
2018-11-29T00:31:41.777Z,21.87
2018-11-29T00:34:09.931Z,20.57
2018-11-29T00:36:38.256Z,24.63
2018-11-29T00:39:07.309Z,20.67
2018-11-29T00:41:35.496Z,21.40
2018-11-29T00:44:03.672Z,21.93
2018-11-29T00:46:31.856Z,22.17
2018-11-29T00:49:00.000Z,20.90
2018-11-29T00:51:28.192Z,22.20
2018-11-29T00:53:56.357Z,18.17
2018-11-29T00:56:24.541Z,22.83
2018-11-29T00:58:52.692Z,21.40
2018-11-29T01:01:20.872Z,20.73
2018-11-29T01:03:49.037Z,21.37
2018-11-29T01:06:17.204Z,20.07
2018-11-29T01:08:45.401Z,21.60
2018-11-29T01:11:13.599Z,21.83
2018-11-29T01:13:41.755Z,20.40
2018-11-29T01:16:09.917Z,20.33
2018-11-29T01:18:38.072Z,19.87
2018-11-29T01:21:06.269Z,19.07
2018-11-29T01:23:34.417Z,23.63
2018-11-29T01:26:02.584Z,21.20
2018-11-29T01:28:30.753Z,18.83
2018-11-29T01:30:58.953Z,20.40
2018-11-29T01:33:27.101Z,17.03
2018-11-29T01:35:55.292Z,18.80
2018-11-29T01:38:23.476Z,20.00
2018-11-29T01:40:51.665Z,19.53
2018-11-29T01:43:19.811Z,17.07
2018-11-29T01:45:47.989Z,22.83
2018-11-29T01:48:16.140Z,18.80
2018-11-29T01:50:44.321Z,19.63
2018-11-29T01:53:12.489Z,20.67
2018-11-29T01:55:40.636Z,21.23
2018-11-29T01:58:08.836Z,21.53
2018-11-29T02:00:36.993Z,18.73
2018-11-29T02:03:05.340Z,20.67
2018-11-29T02:05:33.480Z,22.10
2018-11-29T02:08:01.666Z,21.17
2018-11-29T02:11:01.223Z,21.63
2018-11-29T02:13:29.406Z,23.10
2018-11-29T02:15:57.569Z,22.00
2018-11-29T02:18:25.737Z,20.57
2018-11-29T02:20:53.896Z,21.47
2018-11-29T02:23:22.060Z,22.37
2018-11-29T02:25:50.216Z,19.60
2018-11-29T02:28:18.384Z,22.00
2018-11-29T02:30:46.549Z,22.63
2018-11-29T02:33:14.748Z,20.87
2018-11-29T02:35:42.900Z,21.33
2018-11-29T02:38:11.117Z,21.00
2018-11-29T02:40:39.284Z,19.80
2018-11-29T02:43:07.458Z,22.20
2018-11-29T02:45:35.609Z,20.60
2018-11-29T02:48:03.800Z,19.70
2018-11-29T02:50:31.945Z,21.67
2018-11-29T02:53:00.118Z,21.57
2018-11-29T02:55:28.252Z,22.10
2018-11-29T02:57:56.424Z,22.40
2018-11-29T03:00:24.576Z,19.03
2018-11-29T03:02:52.769Z,21.50
2018-11-29T03:05:20.924Z,21.00
2018-11-29T03:07:49.100Z,20.97
2018-11-29T03:10:22.528Z,20.83
2018-11-29T03:12:50.708Z,19.23
2018-11-29T03:15:18.877Z,21.07
2018-11-29T03:17:47.062Z,21.77
2018-11-29T03:20:15.225Z,20.60
2018-11-29T03:22:43.403Z,19.93
2018-11-29T03:25:11.977Z,18.60
2018-11-29T03:27:40.164Z,21.60
2018-11-29T03:30:09.837Z,20.07
2018-11-29T03:32:38.059Z,21.13
2018-11-29T03:35:06.285Z,22.23
2018-11-29T03:37:34.470Z,17.80
2018-11-29T03:40:02.740Z,17.23
2018-11-29T03:42:30.922Z,19.87
2018-11-29T03:44:59.053Z,19.90
2018-11-29T03:47:27.221Z,18.50
2018-11-29T03:49:55.389Z,19.20
2018-11-29T03:52:23.545Z,17.63
2018-11-29T03:54:51.725Z,16.33
2018-11-29T03:57:19.880Z,18.33
2018-11-29T03:59:48.065Z,19.50
2018-11-29T04:02:16.245Z,19.73
2018-11-29T04:04:44.416Z,23.53
2018-11-29T04:07:12.720Z,18.63
2018-11-29T04:09:40.892Z,17.83
2018-11-29T04:12:09.045Z,20.40
2018-11-29T04:14:37.222Z,19.67
2018-11-29T04:17:05.371Z,16.83
2018-11-29T04:19:33.537Z,20.73
2018-11-29T04:22:01.696Z,16.40
2018-11-29T04:24:29.869Z,19.43
2018-11-29T04:26:58.012Z,19.70
2018-11-29T04:29:26.193Z,20.57
2018-11-29T04:31:54.337Z,16.60
2018-11-29T04:34:22.513Z,21.97
2018-11-29T04:36:50.656Z,19.97
2018-11-29T04:39:19.664Z,20.03
2018-11-29T04:41:47.800Z,19.80
2018-11-29T04:44:15.999Z,20.90
2018-11-29T04:46:48.177Z,19.57
2018-11-29T04:49:16.371Z,16.97
2018-11-29T04:51:44.544Z,16.77
2018-11-29T04:54:12.749Z,19.30
2018-11-29T04:56:40.922Z,17.60
2018-11-29T04:59:09.132Z,17.70
2018-11-29T05:01:37.531Z,18.37
2018-11-29T05:04:05.997Z,19.53
2018-11-29T05:06:35.080Z,18.33
2018-11-29T05:09:04.548Z,17.87
2018-11-29T05:11:32.730Z,17.13
2018-11-29T05:14:00.889Z,15.50
2018-11-29T05:16:29.032Z,15.50
2018-11-29T05:18:57.192Z,18.70
2018-11-29T05:21:25.357Z,20.00
2018-11-29T05:23:53.556Z,17.80
2018-11-29T05:26:21.723Z,17.10
2018-11-29T05:28:49.920Z,16.40
2018-11-29T05:31:18.062Z,18.70
2018-11-29T05:33:46.203Z,19.83
2018-11-29T05:36:14.380Z,19.27
2018-11-29T05:38:42.524Z,19.30
2018-11-29T05:41:10.709Z,20.67
2018-11-29T05:43:38.849Z,17.63
2018-11-29T05:46:07.042Z,20.87
2018-11-29T05:48:35.219Z,18.07
2018-11-29T05:51:03.400Z,14.90
2018-11-29T05:53:31.545Z,20.83
2018-11-29T05:55:59.711Z,19.57
2018-11-29T05:58:27.884Z,18.37
2018-11-29T06:00:56.345Z,19.17
2018-11-29T06:03:24.520Z,16.50
2018-11-29T06:05:52.706Z,17.73
2018-11-29T06:08:20.872Z,16.50
2018-11-29T06:10:49.058Z,21.37
2018-11-29T06:13:17.213Z,17.50
2018-11-29T06:15:45.395Z,15.77
2018-11-29T06:18:13.551Z,18.17
2018-11-29T06:20:41.713Z,16.17
2018-11-29T06:23:09.865Z,18.00
2018-11-29T06:25:38.040Z,15.50
2018-11-29T06:28:06.210Z,17.30
2018-11-29T06:30:34.429Z,18.27
2018-11-29T06:33:02.568Z,18.13
2018-11-29T06:35:30.732Z,18.40
2018-11-29T06:37:59.098Z,16.60
2018-11-29T06:40:27.289Z,19.27
2018-11-29T06:42:55.457Z,19.97
2018-11-29T06:45:23.661Z,17.33
2018-11-29T06:47:52.200Z,17.40
2018-11-29T06:50:20.413Z,21.53
2018-11-29T06:52:49.172Z,20.30
2018-11-29T06:55:18.106Z,18.30
2018-11-29T06:57:46.243Z,21.60
2018-11-29T07:00:35.677Z,18.73
2018-11-29T07:03:03.836Z,22.70
2018-11-29T07:05:32.025Z,20.63
2018-11-29T07:08:00.183Z,18.50
2018-11-29T07:10:32.780Z,17.47
2018-11-29T07:13:01.124Z,15.37
2018-11-29T07:15:29.292Z,20.70
2018-11-29T07:17:57.436Z,17.83
2018-11-29T07:20:25.608Z,16.03
2018-11-29T07:22:53.809Z,15.07
2018-11-29T07:25:21.999Z,19.80
2018-11-29T07:27:50.384Z,18.77
2018-11-29T07:30:18.617Z,16.50
2018-11-29T07:32:46.817Z,14.10
2018-11-29T07:35:15.369Z,17.57
2018-11-29T07:37:43.585Z,16.77
2018-11-29T07:40:13.836Z,21.73
2018-11-29T07:42:42.061Z,20.37
2018-11-29T07:45:14.680Z,18.53
2018-11-29T07:47:42.885Z,19.93
2018-11-29T07:50:12.640Z,19.43
2018-11-29T07:52:40.821Z,19.70
2018-11-29T07:55:09.748Z,17.70
2018-11-29T07:57:37.960Z,18.53
2018-11-29T08:00:08.207Z,17.37
2018-11-29T08:02:36.384Z,21.30
2018-11-29T08:05:04.965Z,17.13
2018-11-29T08:07:33.130Z,18.10
2018-11-29T08:10:01.276Z,16.83
2018-11-29T08:12:29.445Z,19.27
2018-11-29T08:14:57.591Z,17.83
2018-11-29T08:17:25.761Z,19.00
2018-11-29T08:19:53.900Z,17.80
2018-11-29T08:22:22.058Z,20.93
2018-11-29T08:24:50.196Z,24.20
2018-11-29T08:27:18.360Z,20.23
2018-11-29T08:29:46.553Z,21.30
2018-11-29T08:32:14.717Z,26.10
2018-11-29T08:34:42.884Z,18.03
2018-11-29T08:37:11.060Z,28.93
2018-11-29T08:39:39.209Z,31.47
2018-11-29T08:42:07.370Z,20.83
2018-11-29T08:44:35.524Z,17.33
2018-11-29T08:47:03.769Z,20.47
2018-11-29T08:49:31.973Z,18.23
2018-11-29T08:52:00.173Z,18.30
2018-11-29T08:54:28.356Z,15.50
2018-11-29T08:56:56.559Z,15.80
2018-11-29T08:59:24.721Z,18.30
2018-11-29T09:01:52.913Z,15.23
2018-11-29T09:04:21.085Z,15.70
2018-11-29T09:06:49.253Z,15.00
2018-11-29T09:09:17.450Z,15.63
2018-11-29T09:11:45.620Z,13.53
2018-11-29T09:14:13.821Z,15.07
2018-11-29T09:16:41.985Z,16.10
2018-11-29T09:19:10.164Z,13.87
2018-11-29T09:21:38.328Z,15.97
2018-11-29T09:24:06.537Z,16.53
2018-11-29T09:26:34.728Z,16.27
2018-11-29T09:29:02.942Z,15.07
2018-11-29T09:31:31.129Z,18.40
2018-11-29T09:33:59.304Z,13.57
2018-11-29T09:36:27.489Z,12.17
2018-11-29T09:38:55.665Z,15.20
2018-11-29T09:41:23.829Z,15.40
2018-11-29T09:43:52.009Z,11.43
2018-11-29T09:46:20.168Z,13.60
2018-11-29T09:48:48.357Z,11.27
2018-11-29T09:51:16.513Z,12.67
2018-11-29T09:53:44.697Z,10.10
2018-11-29T09:56:12.871Z,11.10
2018-11-29T09:58:41.051Z,12.50
2018-11-29T10:01:09.201Z,10.23
2018-11-29T10:03:37.387Z,9.53
2018-11-29T10:06:05.657Z,10.67
2018-11-29T10:08:33.856Z,9.73
2018-11-29T10:11:02.008Z,11.13
2018-11-29T10:13:30.184Z,8.37
2018-11-29T10:15:58.352Z,11.00
2018-11-29T10:18:26.545Z,11.80
2018-11-29T10:20:54.711Z,11.37
2018-11-29T10:23:22.906Z,12.93
2018-11-29T10:25:51.128Z,10.43
2018-11-29T10:28:19.308Z,14.63
2018-11-29T10:30:50.337Z,12.80
2018-11-29T10:33:18.544Z,14.13
2018-11-29T10:35:46.716Z,11.93
2018-11-29T10:38:14.913Z,10.67
2018-11-29T10:40:43.065Z,9.93
2018-11-29T10:43:11.297Z,9.70
2018-11-29T10:45:40.468Z,10.90
2018-11-29T10:48:09.486Z,10.07
2018-11-29T10:50:37.772Z,19.60
2018-11-29T10:53:06.493Z,10.80
2018-11-29T10:55:34.676Z,9.33
2018-11-29T10:58:02.840Z,10.60
2018-11-29T11:00:34.620Z,10.00
2018-11-29T11:03:07.488Z,9.67
2018-11-29T11:05:35.982Z,10.00
2018-11-29T11:08:08.222Z,8.87
2018-11-29T11:10:32.424Z,12.83
2018-11-29T11:13:00.618Z,10.70
2018-11-29T11:15:28.790Z,15.03
2018-11-29T11:17:56.936Z,9.20
2018-11-29T11:20:25.120Z,10.23
2018-11-29T11:22:53.305Z,10.97
2018-11-29T11:25:21.493Z,10.03
2018-11-29T11:27:49.664Z,12.53
2018-11-29T11:30:18.498Z,10.13
2018-11-29T11:32:47.191Z,10.27
2018-11-29T11:35:15.415Z,8.07
2018-11-29T11:37:43.594Z,10.97
2018-11-29T11:40:12.352Z,9.93
2018-11-29T11:42:40.492Z,9.70
2018-11-29T11:45:10.449Z,11.43
2018-11-29T11:47:38.610Z,11.17
2018-11-29T11:50:10.832Z,11.47
2018-11-29T11:52:36.569Z,12.40
2018-11-29T11:55:05.960Z,10.97
2018-11-29T11:57:34.112Z,11.33
2018-11-29T12:00:02.334Z,11.07
2018-11-29T12:02:30.501Z,11.00
2018-11-29T12:04:58.680Z,10.23
2018-11-29T12:07:26.847Z,10.17
2018-11-29T12:09:55.034Z,10.07
2018-11-29T12:12:23.186Z,16.70
2018-11-29T12:14:51.377Z,13.30
2018-11-29T12:17:19.529Z,10.17
2018-11-29T12:19:47.718Z,15.43
2018-11-29T12:22:15.885Z,12.70
2018-11-29T12:24:44.085Z,12.40
2018-11-29T12:27:12.247Z,12.83
2018-11-29T12:29:40.417Z,14.53
2018-11-29T12:32:08.576Z,11.47
2018-11-29T12:34:36.737Z,13.13
2018-11-29T12:37:05.100Z,12.40
2018-11-29T12:39:33.257Z,15.77
2018-11-29T12:42:01.457Z,13.17
2018-11-29T12:44:29.605Z,16.43
2018-11-29T12:46:57.788Z,13.73
2018-11-29T12:49:25.948Z,12.67
2018-11-29T12:51:54.134Z,25.83
2018-11-29T12:54:22.980Z,12.73
2018-11-29T12:56:51.162Z,12.73
2018-11-29T12:59:19.338Z,12.70
2018-11-29T13:01:47.519Z,17.67
2018-11-29T13:04:15.689Z,15.33
2018-11-29T13:06:43.872Z,17.33
2018-11-29T13:09:12.021Z,16.30
2018-11-29T13:11:40.205Z,16.43
2018-11-29T13:14:08.409Z,18.53
2018-11-29T13:16:36.610Z,14.03
2018-11-29T13:19:04.787Z,15.60
2018-11-29T13:21:32.969Z,15.63
2018-11-29T13:24:01.250Z,16.37
2018-11-29T13:26:29.365Z,16.33
2018-11-29T13:28:57.525Z,16.20
2018-11-29T13:31:25.704Z,17.70
2018-11-29T13:33:53.857Z,17.07
2018-11-29T13:36:22.050Z,14.23
2018-11-29T13:38:50.220Z,15.60
2018-11-29T13:41:18.414Z,15.10
2018-11-29T13:43:46.594Z,17.60
2018-11-29T13:46:14.781Z,16.20
2018-11-29T13:48:42.939Z,15.23
2018-11-29T13:51:11.128Z,18.97
2018-11-29T13:53:39.313Z,19.50
2018-11-29T13:56:07.574Z,15.80
2018-11-29T13:58:35.726Z,17.50
2018-11-29T14:01:03.929Z,14.70
2018-11-29T14:03:32.116Z,16.37
2018-11-29T14:06:00.306Z,18.17
2018-11-29T14:08:28.489Z,19.30
2018-11-29T14:10:56.657Z,15.93
2018-11-29T14:13:24.844Z,18.23
2018-11-29T14:15:53.013Z,17.70
2018-11-29T14:18:21.196Z,17.53
2018-11-29T14:20:49.357Z,26.30
2018-11-29T14:23:17.545Z,30.37
2018-11-29T14:25:45.739Z,51.17
2018-11-29T14:28:13.941Z,18.83
2018-11-29T14:30:42.105Z,19.83
2018-11-29T14:33:10.296Z,20.87
2018-11-29T14:35:38.458Z,20.10
2018-11-29T14:38:06.956Z,22.80
2018-11-29T14:40:35.322Z,20.47
2018-11-29T14:43:03.496Z,20.40
2018-11-29T14:45:31.861Z,25.83
2018-11-29T14:48:00.065Z,21.03
2018-11-29T14:50:31.749Z,22.90
2018-11-29T14:52:59.946Z,23.67
2018-11-29T14:55:28.136Z,18.57
2018-11-29T14:57:56.348Z,18.00
2018-11-29T15:00:24.533Z,18.17
2018-11-29T15:02:52.889Z,17.40
2018-11-29T15:05:22.665Z,17.63
2018-11-29T15:07:50.870Z,22.20
2018-11-29T15:10:19.032Z,20.93
2018-11-29T15:12:47.229Z,23.20
2018-11-29T15:15:15.395Z,19.00
2018-11-29T15:17:44.006Z,19.63
2018-11-29T15:20:12.896Z,19.20
2018-11-29T15:22:41.096Z,22.63
2018-11-29T15:25:09.300Z,16.90
2018-11-29T15:27:37.486Z,19.47
2018-11-29T15:30:07.563Z,17.77
2018-11-29T15:32:35.758Z,16.93
2018-11-29T15:35:03.965Z,16.50
2018-11-29T15:37:32.162Z,17.97
2018-11-29T15:40:00.331Z,19.03
2018-11-29T15:42:28.502Z,17.10
2018-11-29T15:44:56.668Z,17.30
2018-11-29T15:47:24.820Z,23.87
2018-11-29T15:49:53.034Z,19.67
2018-11-29T15:52:21.225Z,18.40
2018-11-29T15:54:49.384Z,24.20
2018-11-29T15:57:17.537Z,20.07
2018-11-29T15:59:45.739Z,27.27
2018-11-29T16:02:13.910Z,24.30
2018-11-29T16:04:42.084Z,18.83
2018-11-29T16:07:10.249Z,21.93
2018-11-29T16:09:38.448Z,22.60
2018-11-29T16:12:06.613Z,22.63
2018-11-29T16:14:34.781Z,21.70
2018-11-29T16:17:02.944Z,24.10
2018-11-29T16:19:31.125Z,19.50
2018-11-29T16:21:59.325Z,22.53
2018-11-29T16:24:27.512Z,19.60
2018-11-29T16:26:55.668Z,33.03
2018-11-29T16:29:23.835Z,28.17
2018-11-29T16:31:52.040Z,20.27
2018-11-29T16:34:20.209Z,21.10
2018-11-29T16:36:48.376Z,20.47
2018-11-29T16:39:16.557Z,19.90
2018-11-29T16:41:44.728Z,23.63
2018-11-29T16:44:12.895Z,24.83
2018-11-29T16:46:41.090Z,22.63
2018-11-29T16:49:09.319Z,19.80
2018-11-29T16:51:37.524Z,23.63
2018-11-29T16:54:05.792Z,25.30
2018-11-29T16:56:33.970Z,31.13
2018-11-29T16:59:02.197Z,31.43
2018-11-29T17:01:30.388Z,31.60
2018-11-29T17:03:58.614Z,32.60
2018-11-29T17:06:26.783Z,26.57
2018-11-29T17:08:54.991Z,28.87
2018-11-29T17:11:23.204Z,25.20
2018-11-29T17:13:51.421Z,26.07
2018-11-29T17:16:19.644Z,24.13
2018-11-29T17:18:47.810Z,28.67
2018-11-29T17:21:15.991Z,24.33
2018-11-29T17:23:44.192Z,24.17
2018-11-29T17:26:12.345Z,29.80
2018-11-29T17:28:40.545Z,22.00
2018-11-29T17:31:08.708Z,28.47
2018-11-29T17:33:36.868Z,23.13
2018-11-29T17:36:05.102Z,26.80
2018-11-29T17:38:33.262Z,21.77
2018-11-29T17:41:01.432Z,29.93
2018-11-29T17:43:29.589Z,28.03
2018-11-29T17:45:57.760Z,26.97
2018-11-29T17:48:25.920Z,24.60
2018-11-29T17:50:54.105Z,31.40
2018-11-29T17:53:22.252Z,29.83
2018-11-29T17:55:50.425Z,26.53
2018-11-29T17:58:18.584Z,25.80
2018-11-29T18:00:48.625Z,29.33
2018-11-29T18:03:17.949Z,26.13
2018-11-29T18:05:46.138Z,23.63
2018-11-29T18:08:14.289Z,22.50
2018-11-29T18:10:42.552Z,22.40
2018-11-29T18:13:18.093Z,23.40
2018-11-29T18:15:46.389Z,25.80
2018-11-29T18:18:14.777Z,23.57
2018-11-29T18:20:42.788Z,22.43
2018-11-29T18:23:11.000Z,21.50
2018-11-29T18:25:39.200Z,21.43
2018-11-29T18:28:07.620Z,22.93
2018-11-29T18:30:35.836Z,24.73
2018-11-29T18:33:04.048Z,22.77
2018-11-29T18:35:32.241Z,25.17
2018-11-29T18:38:00.428Z,23.30
2018-11-29T18:40:28.693Z,25.93
2018-11-29T18:42:57.368Z,24.67
2018-11-29T18:45:25.661Z,26.60
2018-11-29T18:47:54.178Z,27.50
2018-11-29T18:50:22.707Z,26.87
2018-11-29T18:52:51.008Z,27.60
2018-11-29T18:55:19.341Z,32.40
2018-11-29T18:57:47.486Z,31.13
2018-11-29T19:00:24.065Z,29.60
2018-11-29T19:02:57.003Z,28.80
2018-11-29T19:05:21.054Z,33.67
2018-11-29T19:07:49.359Z,32.77
2018-11-29T19:10:17.838Z,30.10
2018-11-29T19:12:50.041Z,30.30
2018-11-29T19:15:18.384Z,31.53
2018-11-29T19:17:46.540Z,28.37
2018-11-29T19:20:14.750Z,31.30
2018-11-29T19:22:42.928Z,32.93
2018-11-29T19:25:11.928Z,33.53
2018-11-29T19:27:40.100Z,30.20
2018-11-29T19:30:11.972Z,30.97
2018-11-29T19:32:40.154Z,30.10
2018-11-29T19:35:08.720Z,30.90
2018-11-29T19:37:36.908Z,35.77
2018-11-29T19:40:07.045Z,30.23
2018-11-29T19:42:35.230Z,33.20
2018-11-29T19:45:03.421Z,26.93
2018-11-29T19:47:31.605Z,34.23
2018-11-29T19:49:59.756Z,29.17
2018-11-29T19:52:27.936Z,31.93
2018-11-29T19:54:56.157Z,34.80
2018-11-29T19:57:24.425Z,31.33
2018-11-29T19:59:52.540Z,30.60
2018-11-29T20:02:20.777Z,29.53
2018-11-29T20:04:49.606Z,24.90
2018-11-29T20:07:18.577Z,25.30
2018-11-29T20:09:46.717Z,27.27
2018-11-29T20:12:14.900Z,25.97
2018-11-29T20:14:43.060Z,26.53
2018-11-29T20:17:10.980Z,32.03
2018-11-29T20:19:39.136Z,26.03
2018-11-29T20:22:07.325Z,23.63
2018-11-29T20:24:35.488Z,27.00
2018-11-29T20:27:03.706Z,25.10
2018-11-29T20:29:31.860Z,24.47
2018-11-29T20:32:00.046Z,25.13
2018-11-29T20:34:28.218Z,47.80
2018-11-29T20:36:56.409Z,34.33
2018-11-29T20:39:24.569Z,33.13
2018-11-29T20:41:52.791Z,28.57
2018-11-29T20:44:20.988Z,28.90
2018-11-29T20:46:49.164Z,25.47
2018-11-29T20:49:17.348Z,23.60
2018-11-29T20:51:45.525Z,27.90
2018-11-29T20:54:13.697Z,28.30
2018-11-29T20:56:41.889Z,25.33
2018-11-29T20:59:10.044Z,23.97
2018-11-29T21:01:38.208Z,24.03
2018-11-29T21:04:06.386Z,27.97
2018-11-29T21:06:34.544Z,26.07
2018-11-29T21:09:02.936Z,23.23
2018-11-29T21:11:31.086Z,26.40
2018-11-29T21:13:59.292Z,22.77
2018-11-29T21:16:27.436Z,26.00
2018-11-29T21:18:55.624Z,34.43
2018-11-29T21:21:23.773Z,25.43
2018-11-29T21:23:51.952Z,22.63
2018-11-29T21:26:20.145Z,23.13
2018-11-29T21:28:48.321Z,24.20
2018-11-29T21:31:16.469Z,20.57
2018-11-29T21:33:44.653Z,25.70
2018-11-29T21:36:12.801Z,21.00
2018-11-29T21:38:40.976Z,24.30
2018-11-29T21:41:09.144Z,25.67
2018-11-29T21:43:37.328Z,53.53
2018-11-29T21:46:05.489Z,36.40
2018-11-29T21:48:33.689Z,34.37
2018-11-29T21:51:01.860Z,26.50
2018-11-29T21:53:30.048Z,28.00
2018-11-29T21:55:58.192Z,27.43
2018-11-29T21:58:26.365Z,25.00
2018-11-29T22:00:54.537Z,29.07
2018-11-29T22:03:22.720Z,33.20
2018-11-29T22:05:50.896Z,26.47
2018-11-29T22:08:19.085Z,21.30
2018-11-29T22:10:47.241Z,21.60
2018-11-29T22:13:15.416Z,29.37
2018-11-29T22:15:43.590Z,23.00
2018-11-29T22:18:28.069Z,26.17
2018-11-29T22:20:56.815Z,22.23
2018-11-29T22:23:25.000Z,22.70
2018-11-29T22:25:53.509Z,23.50
2018-11-29T22:28:21.697Z,17.40
2018-11-29T22:30:49.840Z,21.97
2018-11-29T22:33:18.037Z,14.67
2018-11-29T22:35:46.195Z,19.27
2018-11-29T22:38:14.357Z,22.50
2018-11-29T22:40:42.526Z,20.00
2018-11-29T22:43:10.696Z,18.10
2018-11-29T22:45:38.844Z,17.87
2018-11-29T22:48:07.110Z,19.47
2018-11-29T22:50:35.258Z,20.97
2018-11-29T22:53:03.452Z,23.40
2018-11-29T22:55:31.656Z,20.47
2018-11-29T22:57:59.812Z,21.53
2018-11-29T23:00:32.304Z,23.10
2018-11-29T23:03:00.478Z,23.30
2018-11-29T23:05:28.671Z,22.50
2018-11-29T23:07:57.068Z,20.47
2018-11-29T23:10:25.289Z,19.40
2018-11-29T23:12:53.461Z,22.20
2018-11-29T23:15:21.656Z,25.70
2018-11-29T23:17:49.809Z,22.20
2018-11-29T23:20:18.001Z,22.87
2018-11-29T23:22:46.166Z,25.00
2018-11-29T23:25:14.353Z,22.00
2018-11-29T23:27:42.548Z,22.87
2018-11-29T23:30:11.584Z,22.93
2018-11-29T23:32:39.997Z,19.90
2018-11-29T23:35:08.213Z,20.40
2018-11-29T23:37:36.409Z,25.40
2018-11-29T23:40:05.269Z,25.63
2018-11-29T23:42:33.445Z,30.53
2018-11-29T23:45:01.633Z,25.87
2018-11-29T23:47:29.805Z,24.37
2018-11-29T23:49:57.996Z,23.23
2018-11-29T23:52:26.185Z,23.80
2018-11-29T23:54:54.374Z,26.17
2018-11-29T23:57:22.529Z,27.30
2018-11-29T23:59:50.714Z,26.67
